createdAt,value
2023-01-12T00:04:47.211Z,4.40
2023-01-12T00:09:40.935Z,3.83
2023-01-12T00:14:35.823Z,4.03
2023-01-12T00:17:02.939Z,2.45
2023-01-12T00:19:31.587Z,3.50
2023-01-12T00:22:02.936Z,3.53
2023-01-12T00:24:32.289Z,3.92
2023-01-12T00:27:00.983Z,4.15
2023-01-12T00:29:28.417Z,4.80
2023-01-12T00:31:57.950Z,3.63
2023-01-12T00:34:25.175Z,3.47
2023-01-12T00:36:51.777Z,4.25
2023-01-12T00:39:18.739Z,3.92
2023-01-12T00:42:03.901Z,4.03
2023-01-12T00:44:49.670Z,4.13
2023-01-12T00:47:17.609Z,3.25
2023-01-12T00:49:44.696Z,3.22
2023-01-12T00:52:24.943Z,3.47
2023-01-12T00:54:56.269Z,3.42
2023-01-12T00:57:22.760Z,3.42
2023-01-12T01:02:15.864Z,3.75
2023-01-12T01:04:42.520Z,3.47
2023-01-12T01:07:09.042Z,4.05
2023-01-12T01:09:35.581Z,4.10
2023-01-12T01:14:28.659Z,3.93
2023-01-12T01:19:21.969Z,4.00
2023-01-12T01:21:48.432Z,4.43
2023-01-12T01:26:42.459Z,3.38
2023-01-12T01:29:09.529Z,3.47
2023-01-12T01:31:36.274Z,3.38
2023-01-12T01:34:02.859Z,3.85
2023-01-12T01:36:29.318Z,3.10
2023-01-12T01:41:28.369Z,3.13
2023-01-12T01:43:56.339Z,3.40
2023-01-12T01:46:27.760Z,3.65
2023-01-12T01:48:54.803Z,4.10
2023-01-12T01:51:22.016Z,3.40
2023-01-12T01:53:49.579Z,3.33
2023-01-12T01:56:24.441Z,3.40
2023-01-12T01:59:07.343Z,3.25
2023-01-12T02:01:34.575Z,4.00
2023-01-12T02:04:02.218Z,3.20
2023-01-12T02:06:29.395Z,3.30
2023-01-12T02:09:12.285Z,3.67
2023-01-12T02:11:57.470Z,3.40
2023-01-12T02:14:42.544Z,2.60
2023-01-12T02:17:35.451Z,3.33
2023-01-12T02:20:35.187Z,3.58
2023-01-12T02:23:19.694Z,3.28
2023-01-12T02:26:23.729Z,3.65
2023-01-12T02:29:11.900Z,3.22
2023-01-12T02:31:54.084Z,3.13
2023-01-12T02:34:35.473Z,3.42
2023-01-12T02:37:19.258Z,3.60
2023-01-12T02:39:59.594Z,3.70
2023-01-12T02:42:54.456Z,3.65
2023-01-12T02:45:49.904Z,4.07
2023-01-12T02:48:31.985Z,3.55
2023-01-12T02:51:08.473Z,3.47
2023-01-12T02:53:47.111Z,3.65
2023-01-12T02:56:19.522Z,3.60
2023-01-12T02:58:50.841Z,3.30
2023-01-12T03:01:19.143Z,3.42
2023-01-12T03:03:47.971Z,3.92
2023-01-12T03:06:17.243Z,3.90
2023-01-12T03:08:46.032Z,3.60
2023-01-12T03:11:21.733Z,4.55
2023-01-12T03:13:56.096Z,4.07
2023-01-12T03:16:27.099Z,3.53
2023-01-12T03:19:01.614Z,3.58
2023-01-12T03:21:37.255Z,3.25
2023-01-12T03:24:22.324Z,3.25
2023-01-12T03:26:53.449Z,3.67
2023-01-12T03:29:29.491Z,3.70
2023-01-12T03:31:56.655Z,4.20
2023-01-12T03:34:23.700Z,3.65
2023-01-12T03:37:22.385Z,4.15
2023-01-12T03:40:03.595Z,4.05
2023-01-12T03:42:37.444Z,3.55
2023-01-12T03:45:16.076Z,3.30
2023-01-12T03:47:43.822Z,4.30
2023-01-12T03:50:16.559Z,3.60
2023-01-12T03:52:45.908Z,3.22
2023-01-12T03:55:17.967Z,4.05
2023-01-12T03:57:46.176Z,3.85
2023-01-12T04:00:14.852Z,3.72
2023-01-12T04:02:44.532Z,3.53
2023-01-12T04:05:13.327Z,3.85
2023-01-12T04:07:40.162Z,4.20
2023-01-12T04:10:07.475Z,3.40
2023-01-12T04:12:34.004Z,3.80
2023-01-12T04:17:27.956Z,3.78
2023-01-12T04:19:54.541Z,4.00
2023-01-12T04:22:39.790Z,4.38
2023-01-12T04:25:08.669Z,3.90
2023-01-12T04:27:36.030Z,3.75
2023-01-12T04:32:29.018Z,4.40
2023-01-12T04:37:21.886Z,4.30
2023-01-12T04:42:33.428Z,3.90
2023-01-12T04:44:59.883Z,4.18
2023-01-12T04:49:52.701Z,3.72
2023-01-12T04:54:45.574Z,3.47
2023-01-12T04:57:12.088Z,3.58
2023-01-12T04:59:38.600Z,8.48
2023-01-12T05:02:05.128Z,21.20
2023-01-12T05:04:31.677Z,20.27
2023-01-12T05:09:42.978Z,5.50
2023-01-12T05:12:09.459Z,4.18
2023-01-12T05:17:02.347Z,4.78
2023-01-12T05:19:28.890Z,5.18
2023-01-12T05:21:55.385Z,5.68
2023-01-12T05:26:48.384Z,4.75
2023-01-12T05:29:14.968Z,5.07
2023-01-12T05:31:41.427Z,4.00
2023-01-12T05:36:34.605Z,4.70
2023-01-12T05:41:27.483Z,6.03
2023-01-12T05:43:54.909Z,8.35
2023-01-12T05:46:29.761Z,5.00
2023-01-12T05:48:57.498Z,4.63
2023-01-12T05:51:26.200Z,3.95
2023-01-12T05:53:52.819Z,3.95
2023-01-12T05:56:22.358Z,3.45
2023-01-12T05:58:56.601Z,3.58
2023-01-12T06:01:23.472Z,4.28
2023-01-12T06:03:51.908Z,3.72
2023-01-12T06:06:20.274Z,4.85
2023-01-12T06:08:47.784Z,4.35
2023-01-12T06:11:33.422Z,3.80
2023-01-12T06:14:00.951Z,4.60
2023-01-12T06:16:28.625Z,6.55
2023-01-12T06:18:55.806Z,4.22
2023-01-12T06:21:23.332Z,4.80
2023-01-12T06:23:49.980Z,3.70
2023-01-12T06:26:16.923Z,4.45
2023-01-12T06:28:43.481Z,4.07
2023-01-12T06:31:12.079Z,4.70
2023-01-12T06:33:39.048Z,4.20
2023-01-12T06:36:06.068Z,4.70
2023-01-12T06:38:33.957Z,5.57
2023-01-12T06:41:08.739Z,4.10
2023-01-12T06:43:35.265Z,4.63
2023-01-12T06:46:01.753Z,4.38
2023-01-12T06:48:39.112Z,3.97
2023-01-12T06:51:06.274Z,4.25
2023-01-12T06:53:32.710Z,4.43
2023-01-12T06:58:25.535Z,4.40
2023-01-12T07:03:20.124Z,4.30
2023-01-12T07:05:46.663Z,4.63
2023-01-12T07:08:19.317Z,4.07
2023-01-12T07:10:46.476Z,3.60
2023-01-12T07:13:13.006Z,4.00
2023-01-12T07:15:39.582Z,3.63
2023-01-12T07:18:06.137Z,4.07
2023-01-12T07:20:33.282Z,3.45
2023-01-12T07:22:59.950Z,4.28
2023-01-12T07:25:27.458Z,3.30
2023-01-12T07:27:56.117Z,4.03
2023-01-12T07:30:23.639Z,3.75
2023-01-12T07:32:50.725Z,5.13
2023-01-12T07:35:17.725Z,3.30
2023-01-12T07:37:51.318Z,4.20
2023-01-12T07:40:18.051Z,3.25
2023-01-12T07:42:44.706Z,4.65
2023-01-12T07:45:12.842Z,3.80
2023-01-12T07:47:39.968Z,4.30
2023-01-12T07:50:08.020Z,3.88
2023-01-12T07:52:34.874Z,3.75
2023-01-12T07:55:01.580Z,4.00
2023-01-12T07:57:29.355Z,3.85
2023-01-12T07:59:55.896Z,4.57
2023-01-12T08:02:22.441Z,3.42
2023-01-12T08:04:49.074Z,4.40
2023-01-12T08:07:15.587Z,7.10
2023-01-12T08:09:42.090Z,5.75
2023-01-12T08:12:08.701Z,4.18
2023-01-12T08:14:37.875Z,4.10
2023-01-12T08:17:11.094Z,3.65
2023-01-12T08:19:47.509Z,3.67
2023-01-12T08:22:19.150Z,3.63
2023-01-12T08:24:56.205Z,3.95
2023-01-12T08:29:57.418Z,7.70
2023-01-12T08:32:25.369Z,7.55
2023-01-12T08:34:54.427Z,4.28
2023-01-12T08:37:24.028Z,4.75
2023-01-12T08:39:51.619Z,3.58
2023-01-12T08:42:19.190Z,3.63
2023-01-12T08:44:45.883Z,4.70
2023-01-12T08:47:18.723Z,3.92
2023-01-12T08:49:46.337Z,3.25
2023-01-12T08:52:14.449Z,4.53
2023-01-12T08:54:41.344Z,3.95
2023-01-12T08:57:07.830Z,4.20
2023-01-12T08:59:34.510Z,4.65
2023-01-12T09:04:27.791Z,4.37
2023-01-12T09:09:21.975Z,4.50
2023-01-12T09:11:49.403Z,3.33
2023-01-12T09:14:16.382Z,3.40
2023-01-12T09:16:43.230Z,3.88
2023-01-12T09:19:10.386Z,4.38
2023-01-12T09:21:40.054Z,4.05
2023-01-12T09:24:07.163Z,4.07
2023-01-12T09:26:38.879Z,3.65
2023-01-12T09:29:06.184Z,3.50
2023-01-12T09:31:34.018Z,4.28
2023-01-12T09:34:00.907Z,5.07
2023-01-12T09:36:29.421Z,4.93
2023-01-12T09:38:56.342Z,5.10
2023-01-12T09:41:43.646Z,4.53
2023-01-12T09:44:36.978Z,4.20
2023-01-12T09:47:21.262Z,3.38
2023-01-12T09:50:01.325Z,3.90
2023-01-12T09:52:48.955Z,4.20
2023-01-12T09:55:21.323Z,3.70
2023-01-12T09:58:15.291Z,2.80
2023-01-12T10:00:41.836Z,3.53
2023-01-12T10:03:11.489Z,3.33
2023-01-12T10:05:47.543Z,2.90
2023-01-12T10:08:28.853Z,3.38
2023-01-12T10:11:44.567Z,3.25
2023-01-12T10:14:22.773Z,3.38
2023-01-12T10:17:16.825Z,3.05
2023-01-12T10:20:05.271Z,3.30
2023-01-12T10:22:37.871Z,3.47
2023-01-12T10:25:16.540Z,3.70
2023-01-12T10:27:45.528Z,3.60
2023-01-12T10:30:20.047Z,3.33
2023-01-12T10:32:46.573Z,3.35
2023-01-12T10:37:53.791Z,3.28
2023-01-12T10:40:32.647Z,3.55
2023-01-12T10:43:20.676Z,3.03
2023-01-12T10:46:08.370Z,3.20
2023-01-12T10:51:05.193Z,4.35
2023-01-12T10:53:51.926Z,2.83
2023-01-12T10:56:39.334Z,3.33
2023-01-12T10:59:19.695Z,3.70
2023-01-12T11:01:52.266Z,3.17
2023-01-12T11:04:27.232Z,4.15
2023-01-12T11:07:11.587Z,3.45
2023-01-12T11:09:38.171Z,2.95
2023-01-12T11:12:19.731Z,3.78
2023-01-12T11:15:00.128Z,3.03
2023-01-12T11:33:28.162Z,2.88
2023-01-12T11:36:01.570Z,3.00
2023-01-12T11:38:35.582Z,3.42
2023-01-12T11:41:07.339Z,3.38
2023-01-12T11:43:55.829Z,3.22
2023-01-12T11:46:36.571Z,3.20
2023-01-12T11:49:14.458Z,3.25
2023-01-12T11:51:42.889Z,2.83
2023-01-12T11:54:18.385Z,3.65
2023-01-12T11:57:22.301Z,4.05
2023-01-12T12:00:14.848Z,3.03
2023-01-12T12:02:54.838Z,3.60
2023-01-12T12:05:27.431Z,3.45
2023-01-12T12:08:10.851Z,2.97
2023-01-12T12:11:14.647Z,3.08
2023-01-12T12:13:59.799Z,3.05
2023-01-12T12:16:47.875Z,3.10
2023-01-12T12:19:20.497Z,2.75
2023-01-12T12:22:05.717Z,2.88
2023-01-12T12:24:50.925Z,3.53
2023-01-12T12:27:44.207Z,2.72
2023-01-12T12:30:43.278Z,3.20
2023-01-12T12:33:54.679Z,2.47
2023-01-12T12:36:30.219Z,2.70
2023-01-12T12:39:27.796Z,3.08
2023-01-12T12:42:32.833Z,3.10
2023-01-12T12:45:16.379Z,3.53
2023-01-12T12:47:52.901Z,4.07
2023-01-12T12:50:34.950Z,2.90
2023-01-12T12:53:14.912Z,3.08
2023-01-12T12:55:43.097Z,3.40
2023-01-12T12:58:21.650Z,8.50
2023-01-12T13:00:50.461Z,10.70
2023-01-12T13:03:41.725Z,6.03
2023-01-12T13:06:15.545Z,4.15
2023-01-12T13:08:42.382Z,3.92
2023-01-12T13:11:10.010Z,2.83
2023-01-12T13:13:38.595Z,2.80
2023-01-12T13:16:20.491Z,2.97
2023-01-12T13:18:52.963Z,2.85
2023-01-12T13:21:50.542Z,2.65
2023-01-12T13:24:24.792Z,3.17
2023-01-12T13:26:53.774Z,2.70
2023-01-12T13:29:23.074Z,2.95
2023-01-12T13:31:52.201Z,2.88
2023-01-12T13:34:37.016Z,2.70
2023-01-12T13:37:18.535Z,3.03
2023-01-12T13:39:59.117Z,2.38
2023-01-12T13:42:46.319Z,2.72
2023-01-12T13:45:21.267Z,3.20
2023-01-12T13:47:50.354Z,2.90
2023-01-12T13:50:26.558Z,3.38
2023-01-12T13:53:01.100Z,2.42
2023-01-12T13:55:36.128Z,3.13
2023-01-12T13:58:20.059Z,2.65
2023-01-12T14:00:58.678Z,3.17
2023-01-12T14:03:27.974Z,2.45
2023-01-12T14:06:20.759Z,2.53
2023-01-12T14:09:09.876Z,2.92
2023-01-12T14:11:45.026Z,2.60
2023-01-12T14:14:42.439Z,2.60
2023-01-12T14:17:43.074Z,2.47
2023-01-12T14:20:19.171Z,2.72
2023-01-12T14:22:46.207Z,2.60
2023-01-12T14:25:20.560Z,2.60
2023-01-12T14:27:54.812Z,2.78
2023-01-12T14:30:24.841Z,2.55
2023-01-12T14:32:52.881Z,2.30
2023-01-12T14:35:22.895Z,2.30
2023-01-12T14:37:59.092Z,2.38
2023-01-12T14:40:33.904Z,2.03
2023-01-12T14:43:20.565Z,2.30
2023-01-12T14:46:17.945Z,1.80
2023-01-12T14:49:01.990Z,2.30
2023-01-12T14:51:35.729Z,1.90
2023-01-12T14:54:18.367Z,1.90
2023-01-12T14:57:01.024Z,2.13
2023-01-12T14:59:35.133Z,2.40
2023-01-12T15:02:25.501Z,2.20
2023-01-12T15:05:00.846Z,2.00
2023-01-12T15:07:32.591Z,2.90
2023-01-12T15:10:02.171Z,2.40
2023-01-12T15:12:28.669Z,2.35
2023-01-12T15:18:00.480Z,2.20
2023-01-12T15:20:55.610Z,2.40
2023-01-12T15:23:53.621Z,2.60
2023-01-12T15:26:21.741Z,2.08
2023-01-12T15:28:49.331Z,3.25
2023-01-12T15:31:25.224Z,1.80
2023-01-12T15:33:52.314Z,2.58
2023-01-12T15:36:18.837Z,2.45
2023-01-12T15:41:17.519Z,2.20
2023-01-12T15:43:44.087Z,2.40
2023-01-12T15:46:19.913Z,2.55
2023-01-12T15:48:46.463Z,2.13
2023-01-12T15:51:15.837Z,2.35
2023-01-12T15:53:42.403Z,2.47
2023-01-12T15:58:37.829Z,1.98
2023-01-12T16:03:57.640Z,4.07
2023-01-12T16:06:20.513Z,2.63
2023-01-12T16:08:47.459Z,2.90
2023-01-12T16:11:19.144Z,2.15
2023-01-12T16:13:47.930Z,2.92
2023-01-12T16:16:16.633Z,2.72
2023-01-12T16:18:43.858Z,2.58
2023-01-12T16:21:18.576Z,2.15
2023-01-12T16:23:46.173Z,2.30
2023-01-12T16:26:12.914Z,2.30
2023-01-12T16:28:39.931Z,2.58
2023-01-12T16:31:14.410Z,1.98
2023-01-12T16:33:43.017Z,2.00
2023-01-12T16:36:11.016Z,2.17
2023-01-12T16:38:38.029Z,2.40
2023-01-12T16:41:13.980Z,2.20
2023-01-12T16:43:40.830Z,3.28
2023-01-12T16:46:07.738Z,2.63
2023-01-12T16:48:34.831Z,4.07
2023-01-12T16:51:01.413Z,3.70
2023-01-12T16:53:27.960Z,2.53
2023-01-12T16:58:20.924Z,3.08
2023-01-12T17:00:47.515Z,3.45
2023-01-12T17:03:14.216Z,2.83
2023-01-12T17:05:41.955Z,2.15
2023-01-12T17:08:09.410Z,2.05
2023-01-12T17:10:36.724Z,1.85
2023-01-12T17:13:03.372Z,2.20
2023-01-12T17:15:30.725Z,2.00
2023-01-12T17:17:57.494Z,2.10
2023-01-12T17:20:24.393Z,2.65
2023-01-12T17:22:51.244Z,2.55
2023-01-12T17:25:17.908Z,2.33
2023-01-12T17:27:44.778Z,2.58
2023-01-12T17:30:11.709Z,2.20
2023-01-12T17:32:39.279Z,3.75
2023-01-12T17:35:09.219Z,2.90
2023-01-12T17:37:36.406Z,2.92
2023-01-12T17:40:03.712Z,2.40
2023-01-12T17:42:49.025Z,2.38
2023-01-12T17:45:15.671Z,3.92
2023-01-12T17:47:42.200Z,4.75
2023-01-12T17:50:09.451Z,4.40
2023-01-12T17:52:36.131Z,4.47
2023-01-12T17:55:03.342Z,3.90
2023-01-12T17:57:31.568Z,3.80
2023-01-12T17:59:58.340Z,3.08
2023-01-12T18:02:25.218Z,2.42
2023-01-12T18:04:51.932Z,2.80
2023-01-12T18:07:18.556Z,2.50
2023-01-12T18:09:45.085Z,2.97
2023-01-12T18:14:39.242Z,2.58
2023-01-12T18:17:05.883Z,2.22
2023-01-12T18:19:33.384Z,2.10
2023-01-12T18:22:05.833Z,2.30
2023-01-12T18:24:36.047Z,2.47
2023-01-12T18:27:03.031Z,2.70
2023-01-12T18:29:29.557Z,2.95
2023-01-12T18:34:22.778Z,4.40
2023-01-12T18:36:49.355Z,3.72
2023-01-12T18:39:18.970Z,3.30
2023-01-12T18:42:04.276Z,2.30
2023-01-12T18:44:32.488Z,3.80
2023-01-12T18:47:19.270Z,2.83
2023-01-12T18:49:49.311Z,2.95
2023-01-12T18:52:36.770Z,2.33
2023-01-12T18:55:05.297Z,2.47
2023-01-12T18:57:32.864Z,2.50
2023-01-12T19:00:18.092Z,2.58
2023-01-12T19:02:45.388Z,2.50
2023-01-12T19:05:22.427Z,3.13
2023-01-12T19:10:32.560Z,3.13
2023-01-12T19:13:17.873Z,3.00
2023-01-12T19:16:02.964Z,2.40
2023-01-12T19:18:29.560Z,2.65
2023-01-12T19:21:21.633Z,2.70
2023-01-12T19:24:06.874Z,2.85
2023-01-12T19:26:52.124Z,2.53
2023-01-12T19:29:18.734Z,2.42
2023-01-12T19:31:45.353Z,2.72
2023-01-12T19:34:11.890Z,3.40
2023-01-12T19:39:07.446Z,3.15
2023-01-12T19:41:53.007Z,3.60
2023-01-12T19:44:19.705Z,3.10
2023-01-12T19:46:46.437Z,2.85
2023-01-12T19:49:13.329Z,2.50
2023-01-12T19:51:39.876Z,3.00
2023-01-12T19:56:33.270Z,2.70
2023-01-12T19:58:59.797Z,3.08
2023-01-12T20:03:55.116Z,2.58
2023-01-12T20:08:48.191Z,2.38
2023-01-12T20:11:16.206Z,3.05
2023-01-12T20:13:42.849Z,2.85
2023-01-12T20:16:11.008Z,2.67
2023-01-12T20:18:37.684Z,2.97
2023-01-12T20:21:11.708Z,2.72
2023-01-12T20:23:38.387Z,2.22
2023-01-12T20:26:08.794Z,2.53
2023-01-12T20:28:35.704Z,2.67
2023-01-12T20:31:11.875Z,2.78
2023-01-12T20:33:39.334Z,2.23
2023-01-12T20:36:11.055Z,2.10
2023-01-12T20:38:37.707Z,2.80
2023-01-12T20:41:05.912Z,3.05
2023-01-12T20:43:32.934Z,2.33
2023-01-12T20:45:59.809Z,2.55
2023-01-12T20:48:26.483Z,2.47
2023-01-12T20:50:53.128Z,3.78
2023-01-12T20:53:19.659Z,2.45
2023-01-12T20:58:14.871Z,2.33
2023-01-12T21:03:08.652Z,2.85
2023-01-12T21:05:35.371Z,2.38
2023-01-12T21:08:08.006Z,2.85
2023-01-12T21:10:37.022Z,2.80
2023-01-12T21:13:03.950Z,2.85
2023-01-12T21:15:30.482Z,2.95
2023-01-12T21:20:23.772Z,2.70
2023-01-12T21:22:50.330Z,2.53
2023-01-12T21:27:43.367Z,2.85
2023-01-12T21:32:36.658Z,3.10
2023-01-12T21:35:03.375Z,3.05
2023-01-12T21:37:30.832Z,2.70
2023-01-12T21:39:57.370Z,2.85
2023-01-12T21:42:42.573Z,3.53
2023-01-12T21:45:09.537Z,2.95
2023-01-12T21:47:36.062Z,3.25
2023-01-12T21:52:32.967Z,2.90
2023-01-12T21:54:59.678Z,3.30
2023-01-12T21:57:27.096Z,2.88
2023-01-12T21:59:53.714Z,2.60
2023-01-12T22:02:20.528Z,2.15
2023-01-12T22:07:13.685Z,2.72
2023-01-12T22:09:40.210Z,3.40
2023-01-12T22:14:33.351Z,2.72
2023-01-12T22:19:28.405Z,2.20
2023-01-12T22:21:55.492Z,3.33
2023-01-12T22:24:22.238Z,2.53
2023-01-12T22:26:48.854Z,2.70
2023-01-12T22:29:15.637Z,3.05
2023-01-12T22:31:42.197Z,2.88
2023-01-12T22:34:09.372Z,2.60
2023-01-12T22:36:45.244Z,2.90
2023-01-12T22:39:12.606Z,2.72
2023-01-12T22:41:40.549Z,2.80
2023-01-12T22:44:07.440Z,2.90
2023-01-12T22:46:34.024Z,2.30
2023-01-12T22:49:03.455Z,2.70
2023-01-12T22:51:30.045Z,2.42
2023-01-12T22:53:56.747Z,2.95
2023-01-12T22:56:23.418Z,2.63
2023-01-12T22:58:54.727Z,2.30
2023-01-12T23:18:25.307Z,3.13
2023-01-12T23:20:51.893Z,2.92
2023-01-12T23:23:18.509Z,2.50
2023-01-12T23:25:46.888Z,2.47
2023-01-12T23:28:14.317Z,2.45
2023-01-12T23:30:42.481Z,2.65
2023-01-12T23:33:09.293Z,2.40
2023-01-12T23:35:40.997Z,2.40
2023-01-12T23:38:12.487Z,2.53
2023-01-12T23:40:39.108Z,2.90
2023-01-12T23:43:05.660Z,2.40
2023-01-12T23:45:33.907Z,2.60
2023-01-12T23:48:00.501Z,2.88
2023-01-12T23:50:27.097Z,2.25
2023-01-12T23:52:53.694Z,2.67
2023-01-12T23:55:20.288Z,2.30
2023-01-12T23:57:47.774Z,2.42
